Airport View

Enter AWOS ICAO identifier for current METAR.

ex. KFNL

KICL 262225Z AUTO 33011KT 10SM CLR 03/M13 A3031 RMK AO2

26 Feb 2020 22:28

Frequency: 132.025

Phone: 712-542-3345

Other Area AWOS: KSDA - KRDK - KCSQ - KAFK

TAF KOFF 261800Z 2618/2724 35009KT 9999 FEW050 QNH3034INS BECMG 2623/2624 VRB06KT 9999 FEW050 SCT120 QNH3007INS TX05/2622Z TNM04/2705Z